createdAt,value
2022-08-25T00:00:15.115Z,18.35
2022-08-25T00:01:15.099Z,18.28
2022-08-25T00:02:15.109Z,18.31
2022-08-25T00:03:15.072Z,18.41
2022-08-25T00:04:15.059Z,18.31
2022-08-25T00:05:15.086Z,18.38
2022-08-25T00:06:15.034Z,18.39
2022-08-25T00:07:18.625Z,18.39
2022-08-25T00:08:15.003Z,18.42
2022-08-25T00:09:14.992Z,18.47
2022-08-25T00:10:14.971Z,18.56
2022-08-25T00:11:14.965Z,18.51
2022-08-25T00:12:14.943Z,18.51
2022-08-25T00:13:14.935Z,18.56
2022-08-25T00:14:14.922Z,18.50
2022-08-25T00:15:14.910Z,18.50
2022-08-25T00:16:14.969Z,18.41
2022-08-25T00:17:14.875Z,18.49
2022-08-25T00:18:19.860Z,18.31
2022-08-25T00:19:14.853Z,18.44
2022-08-25T00:20:14.841Z,18.38
2022-08-25T00:21:14.834Z,18.41
2022-08-25T00:22:14.812Z,18.35
2022-08-25T00:23:14.806Z,18.26
2022-08-25T00:24:14.784Z,18.34
2022-08-25T00:25:14.774Z,18.32
2022-08-25T00:26:14.759Z,18.41
2022-08-25T00:27:14.741Z,18.47
2022-08-25T00:28:14.727Z,18.42
2022-08-25T00:29:14.725Z,18.49
2022-08-25T00:30:15.845Z,18.62
2022-08-25T00:31:14.771Z,18.64
2022-08-25T00:32:14.674Z,18.57
2022-08-25T00:33:14.670Z,18.56
2022-08-25T00:34:14.653Z,18.50
2022-08-25T00:35:14.637Z,18.57
2022-08-25T00:36:14.623Z,18.49
2022-08-25T00:37:14.606Z,18.47
2022-08-25T00:38:14.588Z,18.38
2022-08-25T00:39:14.581Z,18.36
2022-08-25T00:40:14.644Z,18.32
2022-08-25T00:41:14.558Z,18.28
2022-08-25T00:42:15.788Z,18.26
2022-08-25T00:43:14.529Z,18.23
2022-08-25T00:44:14.515Z,18.20
2022-08-25T00:45:14.498Z,18.11
2022-08-25T00:46:14.577Z,18.17
2022-08-25T00:47:14.470Z,18.14
2022-08-25T00:48:14.461Z,18.10
2022-08-25T00:49:16.410Z,18.09
2022-08-25T00:50:15.450Z,18.02
2022-08-25T00:51:14.412Z,17.95
2022-08-25T00:52:14.407Z,18.04
2022-08-25T00:53:14.394Z,17.95
2022-08-25T00:54:14.387Z,17.98
2022-08-25T00:55:14.368Z,17.99
2022-08-25T00:56:14.352Z,18.02
2022-08-25T00:57:14.333Z,17.94
2022-08-25T00:58:14.324Z,17.94
2022-08-25T00:59:14.310Z,17.91
2022-08-25T01:00:14.302Z,17.94
2022-08-25T01:01:14.304Z,17.79
2022-08-25T01:02:14.306Z,17.63
2022-08-25T01:03:14.262Z,17.71
2022-08-25T01:04:14.245Z,17.71
2022-08-25T01:05:14.223Z,17.79
2022-08-25T01:06:14.213Z,17.65
2022-08-25T01:07:17.441Z,17.65
2022-08-25T01:08:16.386Z,17.60
2022-08-25T01:09:14.180Z,17.60
2022-08-25T01:10:14.166Z,17.62
2022-08-25T01:11:14.148Z,17.65
2022-08-25T01:12:14.141Z,17.62
2022-08-25T01:13:16.486Z,17.47
2022-08-25T01:14:14.111Z,17.54
2022-08-25T01:15:14.098Z,17.74
2022-08-25T01:16:14.155Z,17.65
2022-08-25T01:17:14.077Z,17.66
2022-08-25T01:18:14.056Z,17.76
2022-08-25T01:19:15.216Z,17.62
2022-08-25T01:20:14.033Z,17.68
2022-08-25T01:21:14.013Z,17.73
2022-08-25T01:22:14.001Z,17.47
2022-08-25T01:23:13.982Z,17.62
2022-08-25T01:24:13.979Z,17.43
2022-08-25T01:25:13.964Z,17.53
2022-08-25T01:26:13.954Z,17.47
2022-08-25T01:27:13.944Z,17.49
2022-08-25T01:28:13.921Z,17.33
2022-08-25T01:29:13.906Z,17.38
2022-08-25T01:30:13.894Z,17.28
2022-08-25T01:31:24.158Z,17.43
2022-08-25T01:32:14.892Z,17.45
2022-08-25T01:33:13.854Z,17.33
2022-08-25T01:34:13.837Z,17.33
2022-08-25T01:35:13.822Z,17.28
2022-08-25T01:36:13.817Z,17.32
2022-08-25T01:37:13.804Z,17.24
2022-08-25T01:38:13.792Z,17.24
2022-08-25T01:39:13.773Z,17.28
2022-08-25T01:40:13.859Z,17.22
2022-08-25T01:41:13.741Z,17.27
2022-08-25T01:42:13.735Z,17.24
2022-08-25T01:43:13.713Z,17.27
2022-08-25T01:44:16.045Z,17.32
2022-08-25T01:45:13.692Z,17.17
2022-08-25T01:46:13.741Z,17.17
2022-08-25T01:47:13.666Z,17.21
2022-08-25T01:48:13.658Z,17.20
2022-08-25T01:49:13.636Z,17.18
2022-08-25T01:50:13.625Z,17.14
2022-08-25T01:51:13.612Z,17.14
2022-08-25T01:52:13.603Z,17.22
2022-08-25T01:53:13.589Z,17.15
2022-08-25T01:54:13.576Z,17.14
2022-08-25T01:55:13.560Z,17.21
2022-08-25T01:56:13.550Z,17.12
2022-08-25T01:57:13.531Z,17.03
2022-08-25T01:58:13.517Z,17.10
2022-08-25T01:59:13.504Z,17.09
2022-08-25T02:00:13.491Z,17.17
2022-08-25T02:01:13.563Z,17.18
2022-08-25T02:02:13.521Z,17.20
2022-08-25T02:03:19.078Z,17.22
2022-08-25T02:04:14.461Z,17.32
2022-08-25T02:05:13.423Z,17.25
2022-08-25T02:06:13.407Z,17.39
2022-08-25T02:07:13.396Z,17.39
2022-08-25T02:08:13.382Z,17.39
2022-08-25T02:09:13.374Z,17.33
2022-08-25T02:10:13.362Z,17.46
2022-08-25T02:11:13.344Z,17.49
2022-08-25T02:12:13.336Z,17.42
2022-08-25T02:13:15.659Z,17.46
2022-08-25T02:14:13.308Z,17.40
2022-08-25T02:15:13.292Z,17.43
2022-08-25T02:16:13.333Z,17.39
2022-08-25T02:17:13.264Z,17.45
2022-08-25T02:18:13.246Z,17.47
2022-08-25T02:19:13.236Z,17.49
2022-08-25T02:20:13.221Z,17.54
2022-08-25T02:21:13.213Z,17.47
2022-08-25T02:22:13.197Z,17.43
2022-08-25T02:23:13.185Z,17.39
2022-08-25T02:24:13.170Z,17.38
2022-08-25T02:25:13.158Z,17.39
2022-08-25T02:26:13.143Z,17.45
2022-08-25T02:27:13.128Z,17.45
2022-08-25T02:28:13.110Z,17.38
2022-08-25T02:29:13.103Z,17.22
2022-08-25T02:30:13.088Z,17.20
2022-08-25T02:31:13.143Z,17.22
2022-08-25T02:32:13.067Z,17.17
2022-08-25T02:33:13.055Z,17.18
2022-08-25T02:34:13.036Z,17.17
2022-08-25T02:35:13.028Z,17.10
2022-08-25T02:36:13.009Z,17.07
2022-08-25T02:37:13.000Z,17.10
2022-08-25T02:38:12.985Z,17.06
2022-08-25T02:39:12.973Z,17.12
2022-08-25T02:40:13.031Z,17.00
2022-08-25T02:41:12.941Z,17.14
2022-08-25T02:42:12.922Z,16.99
2022-08-25T02:43:12.918Z,17.03
2022-08-25T02:44:12.901Z,16.98
2022-08-25T02:45:12.887Z,16.91
2022-08-25T02:46:12.919Z,16.98
2022-08-25T02:47:12.861Z,16.95
2022-08-25T02:48:12.851Z,16.95
2022-08-25T02:49:12.841Z,16.91
2022-08-25T02:50:12.820Z,16.91
2022-08-25T02:51:12.816Z,16.99
2022-08-25T02:52:12.792Z,16.95
2022-08-25T02:53:12.778Z,16.82
2022-08-25T02:54:12.762Z,16.91
2022-08-25T02:55:12.752Z,16.80
2022-08-25T02:56:12.737Z,16.87
2022-08-25T02:57:12.733Z,16.82
2022-08-25T02:58:12.708Z,16.81
2022-08-25T02:59:12.700Z,16.73
2022-08-25T03:00:13.213Z,16.80
2022-08-25T03:01:12.704Z,16.72
2022-08-25T03:02:12.661Z,16.77
2022-08-25T03:03:12.653Z,16.60
2022-08-25T03:04:12.632Z,16.80
2022-08-25T03:05:12.660Z,16.73
2022-08-25T03:06:12.614Z,16.82
2022-08-25T03:07:12.604Z,16.75
2022-08-25T03:08:12.579Z,16.75
2022-08-25T03:09:12.573Z,16.75
2022-08-25T03:10:12.556Z,16.82
2022-08-25T03:11:12.542Z,16.63
2022-08-25T03:12:12.524Z,16.66
2022-08-25T03:13:12.516Z,16.67
2022-08-25T03:14:12.496Z,16.63
2022-08-25T03:15:12.854Z,16.67
2022-08-25T03:16:12.574Z,16.72
2022-08-25T03:17:12.458Z,16.70
2022-08-25T03:18:12.438Z,16.85
2022-08-25T03:19:12.432Z,16.67
2022-08-25T03:20:12.412Z,16.72
2022-08-25T03:21:12.401Z,16.62
2022-08-25T03:22:12.385Z,16.75
2022-08-25T03:23:12.377Z,16.57
2022-08-25T03:24:12.367Z,16.59
2022-08-25T03:25:12.354Z,16.47
2022-08-25T03:26:12.334Z,16.47
2022-08-25T03:27:12.332Z,16.45
2022-08-25T03:28:12.307Z,16.45
2022-08-25T03:29:12.293Z,16.32
2022-08-25T03:30:12.276Z,16.41
2022-08-25T03:31:12.264Z,16.42
2022-08-25T03:32:12.346Z,16.37
2022-08-25T03:33:12.239Z,16.44
2022-08-25T03:34:12.221Z,16.33
2022-08-25T03:35:12.214Z,16.27
2022-08-25T03:36:12.206Z,16.16
2022-08-25T03:37:12.191Z,16.30
2022-08-25T03:38:12.175Z,16.18
2022-08-25T03:39:12.160Z,16.10
2022-08-25T03:40:15.373Z,16.18
2022-08-25T03:41:12.139Z,16.25
2022-08-25T03:42:12.121Z,16.22
2022-08-25T03:43:12.108Z,16.22
2022-08-25T03:44:12.086Z,16.08
2022-08-25T03:45:12.076Z,16.17
2022-08-25T03:46:12.093Z,16.26
2022-08-25T03:47:12.050Z,16.22
2022-08-25T03:48:12.037Z,16.16
2022-08-25T03:49:12.019Z,16.14
2022-08-25T03:50:12.014Z,16.27
2022-08-25T03:51:11.996Z,16.14
2022-08-25T03:52:11.982Z,16.17
2022-08-25T03:53:11.972Z,16.23
2022-08-25T03:54:11.955Z,16.14
2022-08-25T03:55:11.947Z,16.23
2022-08-25T03:56:11.928Z,16.27
2022-08-25T03:57:11.917Z,16.26
2022-08-25T03:58:11.901Z,16.14
2022-08-25T03:59:11.886Z,16.26
2022-08-25T04:00:11.875Z,16.17
2022-08-25T04:01:12.118Z,16.14
2022-08-25T04:02:11.868Z,16.22
2022-08-25T04:03:11.840Z,16.13
2022-08-25T04:04:11.826Z,16.03
2022-08-25T04:05:11.812Z,16.04
2022-08-25T04:06:11.797Z,15.99
2022-08-25T04:07:11.780Z,15.99
2022-08-25T04:08:11.766Z,16.06
2022-08-25T04:09:11.757Z,16.13
2022-08-25T04:10:11.744Z,16.26
2022-08-25T04:11:11.725Z,16.26
2022-08-25T04:12:11.712Z,16.36
2022-08-25T04:13:11.697Z,16.33
2022-08-25T04:14:12.986Z,16.32
2022-08-25T04:15:11.672Z,16.27
2022-08-25T04:16:11.738Z,16.17
2022-08-25T04:17:11.654Z,16.08
2022-08-25T04:18:11.625Z,16.17
2022-08-25T04:19:11.619Z,16.03
2022-08-25T04:20:14.102Z,16.04
2022-08-25T04:21:11.598Z,16.08
2022-08-25T04:22:11.575Z,16.06
2022-08-25T04:23:11.561Z,16.03
2022-08-25T04:24:11.551Z,15.88
2022-08-25T04:25:11.539Z,16.03
2022-08-25T04:26:11.522Z,15.98
2022-08-25T04:27:11.513Z,15.93
2022-08-25T04:28:11.507Z,15.92
2022-08-25T04:29:11.484Z,15.92
2022-08-25T04:30:11.478Z,15.96
2022-08-25T04:31:11.457Z,16.03
2022-08-25T04:32:11.540Z,16.03
2022-08-25T04:33:11.431Z,16.06
2022-08-25T04:34:14.300Z,16.10
2022-08-25T04:35:12.427Z,16.06
2022-08-25T04:36:12.440Z,16.06
2022-08-25T04:37:11.379Z,16.01
2022-08-25T04:38:11.359Z,16.01
2022-08-25T04:39:11.348Z,15.92
2022-08-25T04:40:11.389Z,15.92
2022-08-25T04:41:11.323Z,15.99
2022-08-25T04:42:11.306Z,15.93
2022-08-25T04:43:11.291Z,15.85
2022-08-25T04:44:11.274Z,15.92
2022-08-25T04:45:11.269Z,15.95
2022-08-25T04:46:11.372Z,15.89
2022-08-25T04:47:11.234Z,16.04
2022-08-25T04:48:11.222Z,16.07
2022-08-25T04:49:11.217Z,15.98
2022-08-25T04:50:11.199Z,16.04
2022-08-25T04:51:11.190Z,15.95
2022-08-25T04:52:13.043Z,15.88
2022-08-25T04:53:11.158Z,15.86
2022-08-25T04:54:11.146Z,15.89
2022-08-25T04:55:11.131Z,15.77
2022-08-25T04:56:11.112Z,15.89
2022-08-25T04:57:11.099Z,15.81
2022-08-25T04:58:14.554Z,15.91
2022-08-25T04:59:11.073Z,15.86
2022-08-25T05:00:11.067Z,15.89
2022-08-25T05:01:11.148Z,15.88
2022-08-25T05:02:11.037Z,15.81
2022-08-25T05:03:11.021Z,15.81
2022-08-25T05:04:14.630Z,15.77
2022-08-25T05:05:12.014Z,15.80
2022-08-25T05:06:15.713Z,15.85
2022-08-25T05:07:10.961Z,15.84
2022-08-25T05:08:10.950Z,15.86
2022-08-25T05:09:10.936Z,15.80
2022-08-25T05:10:10.928Z,15.86
2022-08-25T05:11:10.907Z,15.84
2022-08-25T05:12:10.902Z,15.85
2022-08-25T05:13:10.885Z,15.89
2022-08-25T05:14:10.882Z,15.77
2022-08-25T05:15:10.859Z,15.76
2022-08-25T05:16:11.476Z,15.77
2022-08-25T05:17:10.832Z,15.89
2022-08-25T05:18:10.821Z,15.78
2022-08-25T05:19:10.804Z,15.89
2022-08-25T05:20:10.791Z,15.88
2022-08-25T05:21:10.771Z,15.91
2022-08-25T05:22:10.761Z,16.07
2022-08-25T05:23:10.745Z,15.88
2022-08-25T05:24:10.732Z,15.93
2022-08-25T05:25:10.721Z,15.98
2022-08-25T05:26:10.707Z,15.98
2022-08-25T05:27:10.694Z,15.95
2022-08-25T05:28:10.685Z,16.06
2022-08-25T05:29:10.673Z,16.06
2022-08-25T05:30:10.658Z,16.16
2022-08-25T05:31:10.703Z,16.11
2022-08-25T05:32:10.654Z,16.37
2022-08-25T05:33:10.610Z,16.14
2022-08-25T05:34:10.599Z,16.33
2022-08-25T05:35:10.582Z,16.27
2022-08-25T05:36:10.575Z,16.32
2022-08-25T05:37:12.290Z,16.27
2022-08-25T05:38:15.617Z,16.40
2022-08-25T05:39:10.535Z,16.36
2022-08-25T05:40:10.582Z,16.36
2022-08-25T05:41:10.506Z,16.51
2022-08-25T05:42:10.507Z,16.72
2022-08-25T05:43:10.478Z,16.90
2022-08-25T05:44:10.461Z,17.14
2022-08-25T05:45:10.447Z,17.24
2022-08-25T05:46:11.588Z,17.57
2022-08-25T05:47:10.419Z,17.81
2022-08-25T05:48:10.409Z,18.09
2022-08-25T05:49:10.394Z,18.42
2022-08-25T05:50:10.382Z,18.50
2022-08-25T05:51:10.367Z,18.89
2022-08-25T05:52:10.361Z,19.20
2022-08-25T05:53:10.347Z,19.38
2022-08-25T05:54:10.337Z,19.55
2022-08-25T05:55:10.322Z,19.75
2022-08-25T05:56:10.306Z,19.90
2022-08-25T05:57:10.312Z,19.97
2022-08-25T05:58:10.280Z,20.00
2022-08-25T05:59:10.264Z,20.15
2022-08-25T06:00:10.246Z,20.26
2022-08-25T06:01:10.543Z,20.40
2022-08-25T06:02:10.238Z,20.56
2022-08-25T06:03:10.204Z,20.68
2022-08-25T06:04:10.198Z,20.81
2022-08-25T06:05:10.188Z,20.79
2022-08-25T06:06:10.171Z,20.97
2022-08-25T06:07:10.157Z,21.03
2022-08-25T06:08:10.140Z,21.18
2022-08-25T06:09:10.123Z,21.26
2022-08-25T06:10:10.116Z,21.37
2022-08-25T06:11:10.100Z,21.49
2022-08-25T06:12:10.086Z,21.43
2022-08-25T06:13:10.070Z,21.59
2022-08-25T06:14:10.060Z,21.59
2022-08-25T06:15:10.044Z,21.73
2022-08-25T06:16:10.136Z,21.93
2022-08-25T06:17:10.020Z,22.08
2022-08-25T06:18:10.008Z,22.20
2022-08-25T06:19:10.034Z,22.33
2022-08-25T06:20:09.989Z,22.44
2022-08-25T06:21:09.970Z,22.57
2022-08-25T06:22:09.958Z,22.70
2022-08-25T06:23:09.940Z,22.91
2022-08-25T06:24:14.717Z,23.16
2022-08-25T06:25:09.915Z,23.22
2022-08-25T06:26:09.901Z,23.47
2022-08-25T06:27:09.884Z,23.60
2022-08-25T06:28:09.874Z,23.79
2022-08-25T06:29:09.856Z,24.00
2022-08-25T06:30:09.846Z,24.05
2022-08-25T06:31:09.874Z,24.15
2022-08-25T06:32:09.826Z,24.11
2022-08-25T06:33:09.807Z,24.26
2022-08-25T06:34:09.801Z,24.21
2022-08-25T06:35:09.779Z,24.00
2022-08-25T06:36:09.767Z,24.18
2022-08-25T06:37:09.756Z,24.23
2022-08-25T06:38:09.744Z,24.33
2022-08-25T06:39:10.478Z,24.34
2022-08-25T06:40:09.824Z,24.21
2022-08-25T06:41:09.703Z,23.92
2022-08-25T06:42:09.699Z,23.72
2022-08-25T06:43:09.676Z,23.63
2022-08-25T06:44:09.673Z,23.72
2022-08-25T06:45:09.653Z,24.00
2022-08-25T06:46:09.646Z,24.19
2022-08-25T06:47:09.717Z,24.33
2022-08-25T06:48:09.611Z,24.51
2022-08-25T06:49:09.594Z,24.70
2022-08-25T06:50:09.591Z,24.77
2022-08-25T06:51:09.567Z,25.09
2022-08-25T06:52:09.554Z,25.36
2022-08-25T06:53:09.540Z,25.61
2022-08-25T06:54:09.530Z,25.67
2022-08-25T06:55:09.512Z,25.63
2022-08-25T06:56:09.505Z,25.83
2022-08-25T06:57:09.496Z,26.09
2022-08-25T06:58:11.146Z,26.34
2022-08-25T06:59:09.467Z,26.47
2022-08-25T07:00:09.456Z,26.57
2022-08-25T07:01:13.468Z,26.60
2022-08-25T07:02:10.524Z,26.79
2022-08-25T07:03:09.474Z,26.88
2022-08-25T07:04:12.795Z,27.05
2022-08-25T07:05:13.181Z,27.12
2022-08-25T07:06:09.375Z,27.34
2022-08-25T07:07:09.354Z,27.63
2022-08-25T07:08:09.351Z,27.81
2022-08-25T07:09:09.335Z,27.87
2022-08-25T07:10:09.332Z,27.95
2022-08-25T07:11:15.918Z,28.02
2022-08-25T07:12:10.322Z,27.96
2022-08-25T07:13:09.285Z,27.95
2022-08-25T07:14:09.276Z,27.96
2022-08-25T07:15:19.727Z,28.08
2022-08-25T07:16:10.320Z,28.15
2022-08-25T07:17:11.943Z,28.24
2022-08-25T07:18:09.260Z,28.38
2022-08-25T07:19:09.205Z,28.50
2022-08-25T07:20:09.198Z,28.50
2022-08-25T07:21:09.333Z,28.60
2022-08-25T07:22:09.360Z,28.73
2022-08-25T07:23:09.197Z,28.87
2022-08-25T07:24:09.144Z,29.17
2022-08-25T07:25:09.127Z,29.42
2022-08-25T07:26:15.829Z,29.18
2022-08-25T07:27:10.139Z,29.18
2022-08-25T07:28:09.347Z,29.25
2022-08-25T07:29:09.115Z,29.62
2022-08-25T07:30:09.074Z,29.88
2022-08-25T07:31:10.002Z,30.07
2022-08-25T07:32:09.042Z,30.46
2022-08-25T07:33:09.347Z,30.54
2022-08-25T07:34:09.022Z,30.72
2022-08-25T07:35:09.005Z,31.05
2022-08-25T07:36:09.001Z,31.04
2022-08-25T07:37:08.983Z,30.72
2022-08-25T07:38:09.172Z,30.25
2022-08-25T07:39:08.956Z,30.26
2022-08-25T07:40:08.981Z,30.18
2022-08-25T07:41:08.928Z,30.32
2022-08-25T07:42:11.958Z,30.44
2022-08-25T07:43:08.903Z,30.19
2022-08-25T07:44:08.902Z,29.94
2022-08-25T07:45:08.883Z,30.00
2022-08-25T07:46:08.944Z,30.37
2022-08-25T07:47:08.857Z,30.61
2022-08-25T07:48:08.851Z,31.03
2022-08-25T07:49:16.357Z,31.20
2022-08-25T07:50:09.845Z,31.49
2022-08-25T07:51:08.813Z,31.79
2022-08-25T07:52:09.009Z,31.92
2022-08-25T07:53:09.073Z,32.09
2022-08-25T07:54:08.772Z,31.79
2022-08-25T07:55:11.034Z,31.72
2022-08-25T07:56:08.748Z,32.06
2022-08-25T07:57:08.732Z,31.85
2022-08-25T07:58:08.935Z,31.84
2022-08-25T07:59:08.706Z,31.62
2022-08-25T08:00:08.703Z,31.67
2022-08-25T08:01:08.688Z,31.59
2022-08-25T08:02:08.803Z,31.69
2022-08-25T08:03:12.953Z,32.09
2022-08-25T08:04:09.702Z,32.32
2022-08-25T08:05:09.690Z,32.51
2022-08-25T08:06:08.631Z,32.69
2022-08-25T08:07:12.078Z,32.80
2022-08-25T08:08:08.602Z,33.11
2022-08-25T08:09:08.586Z,33.34
2022-08-25T08:10:41.975Z,33.52
2022-08-25T08:11:09.683Z,32.77
2022-08-25T08:12:08.555Z,32.68
2022-08-25T08:13:08.928Z,32.95
2022-08-25T08:14:08.532Z,32.62
2022-08-25T08:15:10.173Z,32.61
2022-08-25T08:16:08.565Z,32.36
2022-08-25T08:17:08.590Z,32.22
2022-08-25T08:18:08.482Z,32.43
2022-08-25T08:19:08.465Z,32.68
2022-08-25T08:20:08.457Z,32.91
2022-08-25T08:21:08.442Z,32.98
2022-08-25T08:22:08.433Z,33.26
2022-08-25T08:23:08.619Z,33.74
2022-08-25T08:24:24.788Z,33.94
2022-08-25T08:25:10.598Z,33.82
2022-08-25T08:26:08.381Z,33.81
2022-08-25T08:27:08.370Z,33.96
2022-08-25T08:28:08.513Z,34.00
2022-08-25T08:29:08.348Z,34.05
2022-08-25T08:30:08.357Z,33.78
2022-08-25T08:31:10.799Z,33.97
2022-08-25T08:32:08.317Z,33.47
2022-08-25T08:33:11.780Z,33.56
2022-08-25T08:34:08.297Z,33.31
2022-08-25T08:35:08.276Z,34.05
2022-08-25T08:36:08.264Z,34.49
2022-08-25T08:37:08.253Z,34.18
2022-08-25T08:38:14.788Z,33.79
2022-08-25T08:39:09.251Z,33.31
2022-08-25T08:40:08.285Z,32.99
2022-08-25T08:41:08.206Z,33.15
2022-08-25T08:42:11.681Z,33.26
2022-08-25T08:43:13.311Z,33.60
2022-08-25T08:44:09.200Z,33.81
2022-08-25T08:45:09.729Z,33.93
2022-08-25T08:46:08.237Z,33.96
2022-08-25T08:47:09.628Z,34.14
2022-08-25T08:48:08.122Z,34.37
2022-08-25T08:49:08.108Z,34.63
2022-08-25T08:50:08.097Z,34.69
2022-08-25T08:51:10.037Z,34.86
2022-08-25T08:52:08.079Z,35.00
2022-08-25T08:53:08.178Z,35.22
2022-08-25T08:54:15.362Z,34.58
2022-08-25T08:55:09.063Z,34.46
2022-08-25T08:56:08.034Z,34.69
2022-08-25T08:57:08.027Z,34.56
2022-08-25T08:58:08.014Z,34.58
2022-08-25T08:59:07.999Z,34.75
2022-08-25T09:00:07.996Z,35.09
2022-08-25T09:01:07.976Z,35.36
2022-08-25T09:02:13.696Z,35.50
2022-08-25T09:03:07.991Z,35.00
2022-08-25T09:04:07.944Z,34.64
2022-08-25T09:05:07.929Z,34.49
2022-08-25T09:06:07.923Z,34.37
2022-08-25T09:07:07.900Z,34.42
2022-08-25T09:08:08.534Z,34.65
2022-08-25T09:09:07.877Z,35.15
2022-08-25T09:10:07.869Z,35.47
2022-08-25T09:11:10.261Z,35.50
2022-08-25T09:12:07.848Z,35.15
2022-08-25T09:13:12.234Z,34.90
2022-08-25T09:14:07.839Z,35.12
2022-08-25T09:15:12.622Z,35.43
2022-08-25T09:16:07.949Z,35.69
2022-08-25T09:17:07.792Z,35.96
2022-08-25T09:18:08.500Z,35.78
2022-08-25T09:19:07.768Z,35.77
2022-08-25T09:20:18.704Z,35.83
2022-08-25T09:21:08.762Z,35.31
2022-08-25T09:22:35.745Z,35.49
2022-08-25T09:23:08.742Z,35.31
2022-08-25T09:24:11.618Z,35.00
2022-08-25T09:25:08.772Z,34.94
2022-08-25T09:26:07.687Z,35.13
2022-08-25T09:27:07.675Z,34.84
2022-08-25T09:28:07.667Z,35.05
2022-08-25T09:29:07.659Z,35.58
2022-08-25T09:30:10.037Z,35.80
2022-08-25T09:31:07.700Z,35.77
2022-08-25T09:32:07.627Z,36.02
2022-08-25T09:33:07.614Z,36.35
2022-08-25T09:34:07.597Z,36.31
2022-08-25T09:35:07.589Z,36.57
2022-08-25T09:36:08.888Z,36.84
2022-08-25T09:37:07.565Z,36.43
2022-08-25T09:38:07.726Z,36.38
2022-08-25T09:39:07.543Z,36.25
2022-08-25T09:40:07.628Z,36.49
2022-08-25T09:41:07.523Z,36.21
2022-08-25T09:42:07.504Z,36.16
2022-08-25T09:43:07.499Z,35.78
2022-08-25T09:44:07.487Z,35.69
2022-08-25T09:45:07.478Z,35.96
2022-08-25T09:46:07.482Z,36.41
2022-08-25T09:47:08.265Z,36.28
2022-08-25T09:48:07.687Z,35.34
2022-08-25T09:49:07.436Z,35.32
2022-08-25T09:50:07.424Z,35.43
2022-08-25T09:51:07.414Z,35.29
2022-08-25T09:52:07.399Z,35.64
2022-08-25T09:53:12.168Z,36.15
2022-08-25T09:54:10.694Z,36.53
2022-08-25T09:55:07.370Z,37.06
2022-08-25T09:56:07.359Z,37.23
2022-08-25T09:57:08.600Z,37.35
2022-08-25T09:58:09.505Z,37.43
2022-08-25T09:59:07.326Z,37.42
2022-08-25T10:00:08.343Z,37.16
2022-08-25T10:01:07.437Z,36.96
2022-08-25T10:02:07.296Z,37.31
2022-08-25T10:03:08.010Z,37.18
2022-08-25T10:04:19.036Z,36.75
2022-08-25T10:05:08.319Z,36.84
2022-08-25T10:06:07.250Z,37.02
2022-08-25T10:07:08.720Z,37.66
2022-08-25T10:08:07.222Z,38.09
2022-08-25T10:09:07.213Z,38.49
2022-08-25T10:10:07.200Z,38.56
2022-08-25T10:11:08.881Z,38.86
2022-08-25T10:12:07.180Z,38.87
2022-08-25T10:13:07.324Z,38.93
2022-08-25T10:14:07.160Z,38.77
2022-08-25T10:15:07.159Z,38.71
2022-08-25T10:16:19.960Z,38.86
2022-08-25T10:17:08.157Z,38.84
2022-08-25T10:18:07.116Z,38.65
2022-08-25T10:19:07.215Z,38.24
2022-08-25T10:20:07.093Z,38.19
2022-08-25T10:21:07.751Z,38.02
2022-08-25T10:22:07.073Z,37.70
2022-08-25T10:23:07.261Z,37.90
2022-08-25T10:24:07.064Z,38.34
2022-08-25T10:25:07.050Z,38.38
2022-08-25T10:26:07.034Z,38.26
2022-08-25T10:27:07.031Z,38.40
2022-08-25T10:28:07.257Z,38.65
2022-08-25T10:29:07.006Z,38.74
2022-08-25T10:30:06.992Z,38.63
2022-08-25T10:31:09.660Z,38.36
2022-08-25T10:32:11.506Z,38.62
2022-08-25T10:33:07.148Z,38.95
2022-08-25T10:34:06.945Z,39.24
2022-08-25T10:35:06.938Z,39.46
2022-08-25T10:36:06.926Z,39.51
2022-08-25T10:37:09.247Z,39.78
2022-08-25T10:38:06.905Z,39.56
2022-08-25T10:39:34.668Z,39.85
2022-08-25T10:40:07.961Z,40.24
2022-08-25T10:41:06.879Z,40.22
2022-08-25T10:42:06.882Z,39.16
2022-08-25T10:43:07.113Z,39.20
2022-08-25T10:44:06.855Z,39.38
2022-08-25T10:45:06.842Z,39.19
2022-08-25T10:46:06.895Z,38.90
2022-08-25T10:47:06.821Z,39.20
2022-08-25T10:48:06.800Z,39.54
2022-08-25T10:49:06.802Z,39.59
2022-08-25T10:50:06.782Z,39.50
2022-08-25T10:51:06.776Z,39.62
2022-08-25T10:52:06.766Z,39.63
2022-08-25T10:53:06.926Z,39.61
2022-08-25T10:54:06.742Z,39.27
2022-08-25T10:55:06.736Z,38.82
2022-08-25T10:56:07.265Z,38.70
2022-08-25T10:57:08.154Z,38.68
2022-08-25T10:58:06.702Z,38.24
2022-08-25T10:59:06.693Z,37.24
2022-08-25T11:00:06.691Z,36.00
2022-08-25T11:01:06.725Z,35.37
2022-08-25T11:02:06.746Z,35.25
2022-08-25T11:03:06.903Z,35.05
2022-08-25T11:04:06.690Z,35.37
2022-08-25T11:05:06.814Z,35.66
2022-08-25T11:06:06.626Z,35.99
2022-08-25T11:07:06.603Z,36.40
2022-08-25T11:08:06.595Z,36.56
2022-08-25T11:09:06.583Z,36.79
2022-08-25T11:10:06.567Z,36.65
2022-08-25T11:11:06.568Z,36.91
2022-08-25T11:12:06.551Z,37.45
2022-08-25T11:13:06.755Z,37.58
2022-08-25T11:14:06.524Z,37.24
2022-08-25T11:15:06.516Z,36.83
2022-08-25T11:16:17.227Z,36.96
2022-08-25T11:17:07.653Z,37.59
2022-08-25T11:18:06.483Z,37.69
2022-08-25T11:19:07.504Z,37.60
2022-08-25T11:20:06.461Z,37.59
2022-08-25T11:21:06.457Z,37.53
2022-08-25T11:22:06.439Z,37.62
2022-08-25T11:23:06.750Z,37.40
2022-08-25T11:24:06.411Z,36.79
2022-08-25T11:25:06.408Z,36.96
2022-08-25T11:26:06.393Z,37.43
2022-08-25T11:27:06.383Z,37.82
2022-08-25T11:28:06.555Z,38.12
2022-08-25T11:29:11.364Z,37.95
2022-08-25T11:30:07.007Z,37.38
2022-08-25T11:31:06.416Z,37.33
2022-08-25T11:32:06.331Z,37.72
2022-08-25T11:33:06.326Z,37.53
2022-08-25T11:34:06.310Z,37.81
2022-08-25T11:35:06.304Z,37.87
2022-08-25T11:36:06.961Z,38.41
2022-08-25T11:37:06.279Z,38.78
2022-08-25T11:38:06.493Z,39.27
2022-08-25T11:39:06.256Z,39.36
2022-08-25T11:40:06.269Z,39.39
2022-08-25T11:41:11.054Z,39.66
2022-08-25T11:42:06.226Z,40.02
2022-08-25T11:43:08.282Z,39.46
2022-08-25T11:44:06.211Z,39.16
2022-08-25T11:45:06.209Z,38.19
2022-08-25T11:46:06.221Z,37.99
2022-08-25T11:47:06.238Z,37.15
2022-08-25T11:48:06.721Z,36.64
2022-08-25T11:49:06.176Z,35.84
2022-08-25T11:50:06.146Z,34.84
2022-08-25T11:51:06.135Z,34.99
2022-08-25T11:52:06.117Z,34.84
2022-08-25T11:53:06.116Z,34.19
2022-08-25T11:54:06.095Z,33.45
2022-08-25T11:55:06.089Z,32.84
2022-08-25T11:56:06.096Z,32.22
2022-08-25T11:57:06.072Z,31.72
2022-08-25T11:58:06.302Z,31.37
2022-08-25T11:59:06.052Z,32.13
2022-08-25T12:00:06.033Z,32.63
2022-08-25T12:01:06.025Z,32.98
2022-08-25T12:02:06.010Z,33.34
2022-08-25T12:03:05.999Z,33.45
2022-08-25T12:04:06.037Z,33.62
2022-08-25T12:05:06.092Z,34.37
2022-08-25T12:06:05.963Z,35.15
2022-08-25T12:07:05.959Z,35.77
2022-08-25T12:08:06.291Z,36.16
2022-08-25T12:09:05.943Z,36.62
2022-08-25T12:10:05.923Z,36.97
2022-08-25T12:11:10.584Z,36.74
2022-08-25T12:12:05.902Z,37.04
2022-08-25T12:13:10.292Z,37.46
2022-08-25T12:14:05.880Z,37.04
2022-08-25T12:15:05.873Z,37.23
2022-08-25T12:16:05.853Z,35.99
2022-08-25T12:17:05.844Z,35.43
2022-08-25T12:18:08.575Z,34.88
2022-08-25T12:19:05.823Z,33.87
2022-08-25T12:20:05.814Z,33.37
2022-08-25T12:21:05.796Z,32.83
2022-08-25T12:22:05.791Z,32.32
2022-08-25T12:23:05.779Z,31.92
2022-08-25T12:24:05.766Z,31.54
2022-08-25T12:25:05.758Z,31.35
2022-08-25T12:26:05.742Z,31.22
2022-08-25T12:27:06.220Z,31.47
2022-08-25T12:28:06.886Z,32.29
2022-08-25T12:29:07.315Z,33.15
2022-08-25T12:30:05.704Z,33.78
2022-08-25T12:31:05.749Z,34.42
2022-08-25T12:32:05.681Z,34.84
2022-08-25T12:33:05.670Z,35.43
2022-08-25T12:34:05.655Z,35.32
2022-08-25T12:35:05.647Z,34.91
2022-08-25T12:36:05.634Z,35.13
2022-08-25T12:37:06.112Z,35.47
2022-08-25T12:38:05.774Z,35.40
2022-08-25T12:39:05.604Z,35.71
2022-08-25T12:40:05.670Z,35.73
2022-08-25T12:41:05.581Z,35.81
2022-08-25T12:42:05.569Z,36.12
2022-08-25T12:43:05.685Z,36.19
2022-08-25T12:44:05.535Z,36.33
2022-08-25T12:45:05.528Z,36.15
2022-08-25T12:46:05.548Z,36.00
2022-08-25T12:47:05.509Z,35.83
2022-08-25T12:48:05.498Z,35.98
2022-08-25T12:49:05.485Z,35.99
2022-08-25T12:50:05.483Z,36.13
2022-08-25T12:51:05.464Z,36.38
2022-08-25T12:52:05.451Z,36.68